Terminal Aerodrome Forecast
Issued by NWS Quad Cities IA IL

Home | Current Version | Previous Version | Text Only | Print | Product List | Glossary On
Versions: 1 2 3 4 5 6 7 8 9 10 11 12 13 14 15 16 17 18 19 20 21 22 23 24 25 26 27 28 29 30 31 32 33 34 35 36 37
000
FTUS43 KDVN 261720
TAFDBQ
TAF
KDBQ 261720Z 2618/2718 02007KT 1/2SM -DZ FG OVC002
     FM262000 30006KT 2SM -DZ BR OVC005
     FM270200 33004KT 1SM BR OVC003
     FM271500 01007KT 4SM BR VCSH OVC008=

USA.gov is the U.S. government's official web portal to all federal, state and local government web resources and services.